sensor_id;sensor_type;location;lat;lon;timestamp;temperature;humidity
50013;DHT22;35901;48.694;9.476;2023-04-06T00:00:57;-3.10;99.90
50013;DHT22;35901;48.694;9.476;2023-04-06T00:03:23;-3.10;99.90
50013;DHT22;35901;48.694;9.476;2023-04-06T00:05:49;-3.20;99.90
50013;DHT22;35901;48.694;9.476;2023-04-06T00:08:15;-3.20;99.90
50013;DHT22;35901;48.694;9.476;2023-04-06T00:10:40;-3.20;99.90
50013;DHT22;35901;48.694;9.476;2023-04-06T00:13:06;-3.10;99.90
50013;DHT22;35901;48.694;9.476;2023-04-06T00:15:33;-3.10;99.90
50013;DHT22;35901;48.694;9.476;2023-04-06T00:17:59;-3.20;99.90
50013;DHT22;35901;48.694;9.476;2023-04-06T00:20:24;-3.30;99.90
50013;DHT22;35901;48.694;9.476;2023-04-06T00:22:50;-3.40;99.90
50013;DHT22;35901;48.694;9.476;2023-04-06T00:25:16;-3.40;99.90
50013;DHT22;35901;48.694;9.476;2023-04-06T00:27:42;-3.40;99.90
50013;DHT22;35901;48.694;9.476;2023-04-06T00:30:08;-3.40;99.90
50013;DHT22;35901;48.694;9.476;2023-04-06T00:32:34;-3.40;99.90
50013;DHT22;35901;48.694;9.476;2023-04-06T00:35:05;-3.40;99.90
50013;DHT22;35901;48.694;9.476;2023-04-06T00:37:31;-3.30;99.90
50013;DHT22;35901;48.694;9.476;2023-04-06T00:39:57;-3.40;99.90
50013;DHT22;35901;48.694;9.476;2023-04-06T00:42:24;-3.30;99.90
50013;DHT22;35901;48.694;9.476;2023-04-06T00:44:57;-3.30;99.90
50013;DHT22;35901;48.694;9.476;2023-04-06T00:47:24;-3.10;99.90
50013;DHT22;35901;48.694;9.476;2023-04-06T00:49:56;-3.10;99.90
50013;DHT22;35901;48.694;9.476;2023-04-06T00:52:22;-3.20;99.90
50013;DHT22;35901;48.694;9.476;2023-04-06T00:54:49;-3.30;99.90
50013;DHT22;35901;48.694;9.476;2023-04-06T00:57:17;-3.30;99.90
50013;DHT22;35901;48.694;9.476;2023-04-06T00:59:45;-3.40;99.90
50013;DHT22;35901;48.694;9.476;2023-04-06T01:02:12;-3.50;99.90
50013;DHT22;35901;48.694;9.476;2023-04-06T01:04:44;-3.50;99.90
50013;DHT22;35901;48.694;9.476;2023-04-06T01:07:17;-3.60;99.90
50013;DHT22;35901;48.694;9.476;2023-04-06T01:09:58;-3.70;99.90
50013;DHT22;35901;48.694;9.476;2023-04-06T01:12:26;-3.70;99.90
50013;DHT22;35901;48.694;9.476;2023-04-06T01:14:52;-3.70;99.90
50013;DHT22;35901;48.694;9.476;2023-04-06T01:17:17;-3.50;99.90
50013;DHT22;35901;48.694;9.476;2023-04-06T01:19:45;-3.50;99.90
50013;DHT22;35901;48.694;9.476;2023-04-06T01:22:20;-3.60;99.90
50013;DHT22;35901;48.694;9.476;2023-04-06T01:25:01;-3.70;99.90
50013;DHT22;35901;48.694;9.476;2023-04-06T01:27:32;-3.70;99.90
50013;DHT22;35901;48.694;9.476;2023-04-06T01:30:21;-3.70;99.90
50013;DHT22;35901;48.694;9.476;2023-04-06T01:32:56;-3.70;99.90
50013;DHT22;35901;48.694;9.476;2023-04-06T01:35:43;-3.90;99.90
50013;DHT22;35901;48.694;9.476;2023-04-06T01:38:16;-4.00;99.90
50013;DHT22;35901;48.694;9.476;2023-04-06T01:40:43;-4.00;99.90
50013;DHT22;35901;48.694;9.476;2023-04-06T01:43:09;-4.00;99.90
50013;DHT22;35901;48.694;9.476;2023-04-06T01:45:47;-4.00;99.90
50013;DHT22;35901;48.694;9.476;2023-04-06T01:48:18;-3.90;99.90
50013;DHT22;35901;48.694;9.476;2023-04-06T01:50:43;-3.80;99.90
50013;DHT22;35901;48.694;9.476;2023-04-06T01:53:12;-3.90;99.90
50013;DHT22;35901;48.694;9.476;2023-04-06T01:55:41;-4.00;99.90
50013;DHT22;35901;48.694;9.476;2023-04-06T01:58:35;-4.10;99.90
50013;DHT22;35901;48.694;9.476;2023-04-06T02:01:02;-4.10;99.90
50013;DHT22;35901;48.694;9.476;2023-04-06T02:03:33;-4.10;99.90
50013;DHT22;35901;48.694;9.476;2023-04-06T02:06:05;-4.10;99.90
50013;DHT22;35901;48.694;9.476;2023-04-06T02:08:36;-4.00;99.90
50013;DHT22;35901;48.694;9.476;2023-04-06T02:11:02;-4.10;99.90
50013;DHT22;35901;48.694;9.476;2023-04-06T02:13:38;-4.10;99.90
50013;DHT22;35901;48.694;9.476;2023-04-06T02:16:04;-4.20;99.90
50013;DHT22;35901;48.694;9.476;2023-04-06T02:18:30;-4.30;99.90
50013;DHT22;35901;48.694;9.476;2023-04-06T02:20:56;-4.30;99.90
50013;DHT22;35901;48.694;9.476;2023-04-06T02:23:22;-4.40;99.90
50013;DHT22;35901;48.694;9.476;2023-04-06T02:25:48;-4.30;99.90
50013;DHT22;35901;48.694;9.476;2023-04-06T02:28:14;-4.20;99.90
50013;DHT22;35901;48.694;9.476;2023-04-06T02:30:40;-4.20;99.90
50013;DHT22;35901;48.694;9.476;2023-04-06T02:33:06;-4.30;99.90
50013;DHT22;35901;48.694;9.476;2023-04-06T02:35:40;-4.30;99.90
50013;DHT22;35901;48.694;9.476;2023-04-06T02:38:06;-4.40;99.90
50013;DHT22;35901;48.694;9.476;2023-04-06T02:40:32;-4.50;99.90
50013;DHT22;35901;48.694;9.476;2023-04-06T02:43:05;-4.60;99.90
50013;DHT22;35901;48.694;9.476;2023-04-06T02:45:31;-4.60;99.90
50013;DHT22;35901;48.694;9.476;2023-04-06T02:47:58;-4.50;99.90
50013;DHT22;35901;48.694;9.476;2023-04-06T02:50:25;-4.50;99.90
50013;DHT22;35901;48.694;9.476;2023-04-06T02:52:57;-4.40;99.90
50013;DHT22;35901;48.694;9.476;2023-04-06T02:55:23;-4.40;99.90
50013;DHT22;35901;48.694;9.476;2023-04-06T02:57:49;-4.40;99.90
50013;DHT22;35901;48.694;9.476;2023-04-06T03:00:17;-4.40;99.90
50013;DHT22;35901;48.694;9.476;2023-04-06T03:02:42;-4.50;99.90
50013;DHT22;35901;48.694;9.476;2023-04-06T03:05:12;-4.60;99.90
50013;DHT22;35901;48.694;9.476;2023-04-06T03:07:41;-4.70;99.90
50013;DHT22;35901;48.694;9.476;2023-04-06T03:10:12;-4.70;99.90
50013;DHT22;35901;48.694;9.476;2023-04-06T03:12:38;-4.70;99.90
50013;DHT22;35901;48.694;9.476;2023-04-06T03:15:13;-4.70;99.90
50013;DHT22;35901;48.694;9.476;2023-04-06T03:17:44;-4.80;99.90
50013;DHT22;35901;48.694;9.476;2023-04-06T03:20:19;-4.80;99.90
50013;DHT22;35901;48.694;9.476;2023-04-06T03:22:45;-4.90;99.90
50013;DHT22;35901;48.694;9.476;2023-04-06T03:25:13;-4.90;99.90
50013;DHT22;35901;48.694;9.476;2023-04-06T03:27:42;-4.80;99.90
50013;DHT22;35901;48.694;9.476;2023-04-06T03:30:12;-4.80;99.90
50013;DHT22;35901;48.694;9.476;2023-04-06T03:32:37;-4.80;99.90
50013;DHT22;35901;48.694;9.476;2023-04-06T03:35:03;-4.90;99.90
50013;DHT22;35901;48.694;9.476;2023-04-06T03:37:30;-5.00;99.90
50013;DHT22;35901;48.694;9.476;2023-04-06T03:40:00;-5.00;99.90
50013;DHT22;35901;48.694;9.476;2023-04-06T03:42:26;-5.00;99.90
50013;DHT22;35901;48.694;9.476;2023-04-06T03:44:57;-4.90;99.90
50013;DHT22;35901;48.694;9.476;2023-04-06T03:47:24;-4.80;99.90
50013;DHT22;35901;48.694;9.476;2023-04-06T03:49:54;-4.70;99.90
50013;DHT22;35901;48.694;9.476;2023-04-06T03:52:22;-4.70;99.90
50013;DHT22;35901;48.694;9.476;2023-04-06T03:54:50;-4.70;99.90
50013;DHT22;35901;48.694;9.476;2023-04-06T03:57:16;-4.80;99.90
50013;DHT22;35901;48.694;9.476;2023-04-06T03:59:41;-4.80;99.90
50013;DHT22;35901;48.694;9.476;2023-04-06T04:02:07;-4.90;99.90
50013;DHT22;35901;48.694;9.476;2023-04-06T04:04:32;-5.10;99.90
50013;DHT22;35901;48.694;9.476;2023-04-06T04:06:58;-5.10;99.90
50013;DHT22;35901;48.694;9.476;2023-04-06T04:09:24;-5.10;99.90
50013;DHT22;35901;48.694;9.476;2023-04-06T04:11:50;-5.20;99.90
50013;DHT22;35901;48.694;9.476;2023-04-06T04:14:15;-5.20;99.90
50013;DHT22;35901;48.694;9.476;2023-04-06T04:16:41;-5.00;99.90
50013;DHT22;35901;48.694;9.476;2023-04-06T04:19:07;-5.00;99.90
50013;DHT22;35901;48.694;9.476;2023-04-06T04:21:33;-5.10;99.90
50013;DHT22;35901;48.694;9.476;2023-04-06T04:24:04;-5.20;99.90
50013;DHT22;35901;48.694;9.476;2023-04-06T04:26:32;-5.10;99.90
50013;DHT22;35901;48.694;9.476;2023-04-06T04:28:58;-5.10;99.90
50013;DHT22;35901;48.694;9.476;2023-04-06T04:31:23;-5.20;99.90
50013;DHT22;35901;48.694;9.476;2023-04-06T04:33:54;-5.30;99.90
50013;DHT22;35901;48.694;9.476;2023-04-06T04:36:26;-5.30;99.90
50013;DHT22;35901;48.694;9.476;2023-04-06T04:38:53;-5.40;99.90
50013;DHT22;35901;48.694;9.476;2023-04-06T04:41:19;-5.40;99.90
50013;DHT22;35901;48.694;9.476;2023-04-06T04:43:46;-5.50;99.90
50013;DHT22;35901;48.694;9.476;2023-04-06T04:46:15;-5.50;99.90
50013;DHT22;35901;48.694;9.476;2023-04-06T04:48:42;-5.50;99.90
50013;DHT22;35901;48.694;9.476;2023-04-06T04:51:08;-5.50;99.90
50013;DHT22;35901;48.694;9.476;2023-04-06T04:53:50;-5.50;99.90
50013;DHT22;35901;48.694;9.476;2023-04-06T04:56:21;-5.50;99.90
50013;DHT22;35901;48.694;9.476;2023-04-06T04:58:52;-5.30;99.90
50013;DHT22;35901;48.694;9.476;2023-04-06T05:01:18;-5.20;99.90
50013;DHT22;35901;48.694;9.476;2023-04-06T05:03:45;-5.20;99.90
50013;DHT22;35901;48.694;9.476;2023-04-06T05:06:14;-5.10;99.90
50013;DHT22;35901;48.694;9.476;2023-04-06T05:08:41;-5.10;99.90
50013;DHT22;35901;48.694;9.476;2023-04-06T05:11:08;-5.10;99.90
50013;DHT22;35901;48.694;9.476;2023-04-06T05:13:39;-4.80;99.90
50013;DHT22;35901;48.694;9.476;2023-04-06T05:16:11;-4.40;99.90
50013;DHT22;35901;48.694;9.476;2023-04-06T05:18:37;-4.00;99.90
50013;DHT22;35901;48.694;9.476;2023-04-06T05:21:05;-3.60;99.90
50013;DHT22;35901;48.694;9.476;2023-04-06T05:23:50;-3.20;99.90
50013;DHT22;35901;48.694;9.476;2023-04-06T05:26:17;-2.70;99.90
50013;DHT22;35901;48.694;9.476;2023-04-06T05:28:43;-2.30;99.90
50013;DHT22;35901;48.694;9.476;2023-04-06T05:31:10;-1.90;99.90
50013;DHT22;35901;48.694;9.476;2023-04-06T05:33:44;-1.50;99.90
50013;DHT22;35901;48.694;9.476;2023-04-06T05:36:13;-1.00;99.90
50013;DHT22;35901;48.694;9.476;2023-04-06T05:38:42;-0.70;99.90
50013;DHT22;35901;48.694;9.476;2023-04-06T05:41:18;-0.50;99.90
50013;DHT22;35901;48.694;9.476;2023-04-06T05:43:44;-0.20;99.90
50013;DHT22;35901;48.694;9.476;2023-04-06T05:46:10;0.10;99.90
50013;DHT22;35901;48.694;9.476;2023-04-06T05:48:36;0.30;99.90
50013;DHT22;35901;48.694;9.476;2023-04-06T05:51:03;0.50;99.90
50013;DHT22;35901;48.694;9.476;2023-04-06T05:53:38;0.80;99.90
50013;DHT22;35901;48.694;9.476;2023-04-06T05:56:04;0.90;99.90
50013;DHT22;35901;48.694;9.476;2023-04-06T05:58:30;1.10;99.90
50013;DHT22;35901;48.694;9.476;2023-04-06T06:00:57;1.10;99.90
50013;DHT22;35901;48.694;9.476;2023-04-06T06:03:24;1.10;99.90
50013;DHT22;35901;48.694;9.476;2023-04-06T06:05:53;1.10;99.90
50013;DHT22;35901;48.694;9.476;2023-04-06T06:08:26;1.20;99.90
50013;DHT22;35901;48.694;9.476;2023-04-06T06:10:52;1.30;99.90
50013;DHT22;35901;48.694;9.476;2023-04-06T06:13:21;1.40;99.90
50013;DHT22;35901;48.694;9.476;2023-04-06T06:15:48;1.60;99.90
50013;DHT22;35901;48.694;9.476;2023-04-06T06:18:16;2.00;99.90
50013;DHT22;35901;48.694;9.476;2023-04-06T06:20:42;2.40;99.90
50013;DHT22;35901;48.694;9.476;2023-04-06T06:23:07;2.80;99.90
50013;DHT22;35901;48.694;9.476;2023-04-06T06:25:35;3.10;99.90
50013;DHT22;35901;48.694;9.476;2023-04-06T06:28:02;3.50;99.90
50013;DHT22;35901;48.694;9.476;2023-04-06T06:30:29;3.60;99.90
50013;DHT22;35901;48.694;9.476;2023-04-06T06:32:55;4.00;99.90
50013;DHT22;35901;48.694;9.476;2023-04-06T06:35:22;4.20;99.90
50013;DHT22;35901;48.694;9.476;2023-04-06T06:37:48;4.20;99.90
50013;DHT22;35901;48.694;9.476;2023-04-06T06:40:17;4.20;99.90
50013;DHT22;35901;48.694;9.476;2023-04-06T06:42:44;4.20;99.90
50013;DHT22;35901;48.694;9.476;2023-04-06T06:45:29;4.20;99.90
50013;DHT22;35901;48.694;9.476;2023-04-06T06:47:55;4.30;99.90
50013;DHT22;35901;48.694;9.476;2023-04-06T06:50:20;4.60;99.90
50013;DHT22;35901;48.694;9.476;2023-04-06T06:52:46;4.80;99.90
50013;DHT22;35901;48.694;9.476;2023-04-06T06:55:12;4.90;99.90
50013;DHT22;35901;48.694;9.476;2023-04-06T06:57:37;5.10;99.90
50013;DHT22;35901;48.694;9.476;2023-04-06T07:00:05;5.30;99.90
50013;DHT22;35901;48.694;9.476;2023-04-06T07:02:34;5.40;99.90
50013;DHT22;35901;48.694;9.476;2023-04-06T07:05:01;5.50;99.90
50013;DHT22;35901;48.694;9.476;2023-04-06T07:07:28;5.70;99.90
50013;DHT22;35901;48.694;9.476;2023-04-06T07:09:53;5.80;99.90
50013;DHT22;35901;48.694;9.476;2023-04-06T07:12:19;6.00;99.90
50013;DHT22;35901;48.694;9.476;2023-04-06T07:14:45;6.30;99.90
50013;DHT22;35901;48.694;9.476;2023-04-06T07:17:12;6.40;99.90
50013;DHT22;35901;48.694;9.476;2023-04-06T07:19:38;6.60;99.90
50013;DHT22;35901;48.694;9.476;2023-04-06T07:22:04;6.80;98.90
50013;DHT22;35901;48.694;9.476;2023-04-06T07:24:30;6.80;98.00
50013;DHT22;35901;48.694;9.476;2023-04-06T07:26:56;6.90;97.90
50013;DHT22;35901;48.694;9.476;2023-04-06T07:29:22;6.70;97.30
50013;DHT22;35901;48.694;9.476;2023-04-06T07:31:49;6.60;97.20
50013;DHT22;35901;48.694;9.476;2023-04-06T07:34:15;6.70;98.00
50013;DHT22;35901;48.694;9.476;2023-04-06T07:36:41;7.10;97.00
50013;DHT22;35901;48.694;9.476;2023-04-06T07:39:07;7.20;96.70
50013;DHT22;35901;48.694;9.476;2023-04-06T07:41:34;7.40;96.60
50013;DHT22;35901;48.694;9.476;2023-04-06T07:44:00;7.50;96.00
50013;DHT22;35901;48.694;9.476;2023-04-06T07:46:26;7.70;96.40
50013;DHT22;35901;48.694;9.476;2023-04-06T07:48:52;7.80;95.80
50013;DHT22;35901;48.694;9.476;2023-04-06T07:51:18;7.70;95.90
50013;DHT22;35901;48.694;9.476;2023-04-06T07:53:44;7.90;94.80
50013;DHT22;35901;48.694;9.476;2023-04-06T07:56:10;7.70;94.50
50013;DHT22;35901;48.694;9.476;2023-04-06T07:58:37;7.80;94.90
50013;DHT22;35901;48.694;9.476;2023-04-06T08:01:03;7.80;95.10
50013;DHT22;35901;48.694;9.476;2023-04-06T08:03:30;7.90;95.00
50013;DHT22;35901;48.694;9.476;2023-04-06T08:05:58;8.10;94.70
50013;DHT22;35901;48.694;9.476;2023-04-06T08:08:24;8.60;94.00
50013;DHT22;35901;48.694;9.476;2023-04-06T08:10:49;8.70;93.50
50013;DHT22;35901;48.694;9.476;2023-04-06T08:13:15;8.30;93.80
50013;DHT22;35901;48.694;9.476;2023-04-06T08:15:41;8.30;93.70
50013;DHT22;35901;48.694;9.476;2023-04-06T08:18:08;8.30;93.80
50013;DHT22;35901;48.694;9.476;2023-04-06T08:20:34;8.60;93.80
50013;DHT22;35901;48.694;9.476;2023-04-06T08:23:00;9.00;93.40
50013;DHT22;35901;48.694;9.476;2023-04-06T08:25:26;9.30;93.30
50013;DHT22;35901;48.694;9.476;2023-04-06T08:27:51;9.50;93.10
50013;DHT22;35901;48.694;9.476;2023-04-06T08:30:17;9.80;93.10
50013;DHT22;35901;48.694;9.476;2023-04-06T08:32:45;10.20;90.90
50013;DHT22;35901;48.694;9.476;2023-04-06T08:35:11;9.80;91.20
50013;DHT22;35901;48.694;9.476;2023-04-06T08:37:37;9.50;91.40
50013;DHT22;35901;48.694;9.476;2023-04-06T08:40:03;9.40;91.80
50013;DHT22;35901;48.694;9.476;2023-04-06T08:42:32;9.50;92.10
50013;DHT22;35901;48.694;9.476;2023-04-06T08:44:59;10.20;90.20
50013;DHT22;35901;48.694;9.476;2023-04-06T08:47:25;9.90;90.70
50013;DHT22;35901;48.694;9.476;2023-04-06T08:49:53;9.90;91.40
50013;DHT22;35901;48.694;9.476;2023-04-06T08:52:20;10.00;89.20
50013;DHT22;35901;48.694;9.476;2023-04-06T08:54:47;9.90;90.20
50013;DHT22;35901;48.694;9.476;2023-04-06T08:57:13;10.10;90.70
50013;DHT22;35901;48.694;9.476;2023-04-06T08:59:39;10.40;90.10
50013;DHT22;35901;48.694;9.476;2023-04-06T09:02:06;10.30;89.60
50013;DHT22;35901;48.694;9.476;2023-04-06T09:04:33;10.60;88.50
50013;DHT22;35901;48.694;9.476;2023-04-06T09:07:00;10.80;87.70
50013;DHT22;35901;48.694;9.476;2023-04-06T09:09:26;10.90;86.90
50013;DHT22;35901;48.694;9.476;2023-04-06T09:11:53;10.80;86.60
50013;DHT22;35901;48.694;9.476;2023-04-06T09:14:38;10.90;87.40
50013;DHT22;35901;48.694;9.476;2023-04-06T09:17:06;11.20;83.30
50013;DHT22;35901;48.694;9.476;2023-04-06T09:19:32;11.30;81.80
50013;DHT22;35901;48.694;9.476;2023-04-06T09:22:06;11.30;81.10
50013;DHT22;35901;48.694;9.476;2023-04-06T09:24:47;11.50;81.20
50013;DHT22;35901;48.694;9.476;2023-04-06T09:27:14;11.60;78.80
50013;DHT22;35901;48.694;9.476;2023-04-06T09:29:42;11.60;76.40
50013;DHT22;35901;48.694;9.476;2023-04-06T09:32:08;11.60;76.80
50013;DHT22;35901;48.694;9.476;2023-04-06T09:34:40;11.60;78.10
50013;DHT22;35901;48.694;9.476;2023-04-06T09:37:16;11.60;77.60
50013;DHT22;35901;48.694;9.476;2023-04-06T09:39:43;11.80;78.40
50013;DHT22;35901;48.694;9.476;2023-04-06T09:42:09;11.90;74.00
50013;DHT22;35901;48.694;9.476;2023-04-06T09:44:35;12.00;75.80
50013;DHT22;35901;48.694;9.476;2023-04-06T09:47:03;11.90;72.90
50013;DHT22;35901;48.694;9.476;2023-04-06T09:49:33;12.00;72.20
50013;DHT22;35901;48.694;9.476;2023-04-06T09:52:03;12.10;72.10
50013;DHT22;35901;48.694;9.476;2023-04-06T09:54:31;12.00;73.20
50013;DHT22;35901;48.694;9.476;2023-04-06T09:57:25;12.10;73.70
50013;DHT22;35901;48.694;9.476;2023-04-06T10:00:03;12.70;72.70
50013;DHT22;35901;48.694;9.476;2023-04-06T10:02:58;12.60;69.70
50013;DHT22;35901;48.694;9.476;2023-04-06T10:08:09;12.80;70.00
50013;DHT22;35901;48.694;9.476;2023-04-06T10:10:37;13.00;70.90
50013;DHT22;35901;48.694;9.476;2023-04-06T10:13:04;13.30;68.30
50013;DHT22;35901;48.694;9.476;2023-04-06T10:15:31;13.40;66.40
50013;DHT22;35901;48.694;9.476;2023-04-06T10:18:00;13.50;65.90
50013;DHT22;35901;48.694;9.476;2023-04-06T10:21:19;13.60;67.00
50013;DHT22;35901;48.694;9.476;2023-04-06T10:23:54;13.90;65.70
50013;DHT22;35901;48.694;9.476;2023-04-06T10:26:24;13.70;64.10
50013;DHT22;35901;48.694;9.476;2023-04-06T10:28:51;13.70;65.90
50013;DHT22;35901;48.694;9.476;2023-04-06T10:31:28;13.70;63.80
50013;DHT22;35901;48.694;9.476;2023-04-06T10:34:00;13.80;63.80
50013;DHT22;35901;48.694;9.476;2023-04-06T10:36:31;13.90;62.20
50013;DHT22;35901;48.694;9.476;2023-04-06T10:39:00;13.90;60.40
50013;DHT22;35901;48.694;9.476;2023-04-06T10:41:40;13.90;59.70
50013;DHT22;35901;48.694;9.476;2023-04-06T10:44:06;14.00;60.90
50013;DHT22;35901;48.694;9.476;2023-04-06T10:46:33;14.00;63.00
50013;DHT22;35901;48.694;9.476;2023-04-06T10:49:10;14.30;62.90
50013;DHT22;35901;48.694;9.476;2023-04-06T10:51:38;14.50;59.40
50013;DHT22;35901;48.694;9.476;2023-04-06T10:54:06;14.30;57.90
50013;DHT22;35901;48.694;9.476;2023-04-06T10:56:33;14.40;62.50
50013;DHT22;35901;48.694;9.476;2023-04-06T10:59:02;14.40;64.60
50013;DHT22;35901;48.694;9.476;2023-04-06T11:01:29;13.80;60.40
50013;DHT22;35901;48.694;9.476;2023-04-06T11:03:56;13.40;60.30
50013;DHT22;35901;48.694;9.476;2023-04-06T11:06:29;13.30;61.60
50013;DHT22;35901;48.694;9.476;2023-04-06T11:08:56;14.60;62.40
50013;DHT22;35901;48.694;9.476;2023-04-06T11:11:23;14.20;58.20
50013;DHT22;35901;48.694;9.476;2023-04-06T11:13:53;13.90;60.80
50013;DHT22;35901;48.694;9.476;2023-04-06T11:21:20;13.80;61.20
50013;DHT22;35901;48.694;9.476;2023-04-06T11:24:13;14.30;61.60
50013;DHT22;35901;48.694;9.476;2023-04-06T11:29:19;15.00;59.50
50013;DHT22;35901;48.694;9.476;2023-04-06T11:31:53;15.10;59.50
50013;DHT22;35901;48.694;9.476;2023-04-06T11:34:21;14.90;58.20
50013;DHT22;35901;48.694;9.476;2023-04-06T11:36:57;15.00;57.70
50013;DHT22;35901;48.694;9.476;2023-04-06T11:39:25;15.00;55.80
50013;DHT22;35901;48.694;9.476;2023-04-06T11:41:53;14.90;56.70
50013;DHT22;35901;48.694;9.476;2023-04-06T11:44:49;14.90;55.60
50013;DHT22;35901;48.694;9.476;2023-04-06T11:47:15;14.90;56.20
50013;DHT22;35901;48.694;9.476;2023-04-06T11:49:43;15.10;57.80
50013;DHT22;35901;48.694;9.476;2023-04-06T11:52:24;14.90;55.60
50013;DHT22;35901;48.694;9.476;2023-04-06T11:54:52;14.70;56.70
50013;DHT22;35901;48.694;9.476;2023-04-06T11:57:19;14.40;57.40
50013;DHT22;35901;48.694;9.476;2023-04-06T11:59:45;15.40;56.90
50013;DHT22;35901;48.694;9.476;2023-04-06T12:02:11;16.00;54.50
50013;DHT22;35901;48.694;9.476;2023-04-06T12:04:37;15.80;53.20
50013;DHT22;35901;48.694;9.476;2023-04-06T12:07:03;15.20;55.10
50013;DHT22;35901;48.694;9.476;2023-04-06T12:09:30;15.10;52.50
50013;DHT22;35901;48.694;9.476;2023-04-06T12:11:56;15.00;52.80
50013;DHT22;35901;48.694;9.476;2023-04-06T12:14:21;14.30;52.30
50013;DHT22;35901;48.694;9.476;2023-04-06T12:16:47;13.60;52.00
50013;DHT22;35901;48.694;9.476;2023-04-06T12:19:13;14.50;56.20
50013;DHT22;35901;48.694;9.476;2023-04-06T12:21:39;14.60;54.80
50013;DHT22;35901;48.694;9.476;2023-04-06T12:24:06;13.30;53.50
50013;DHT22;35901;48.694;9.476;2023-04-06T12:26:32;13.40;52.40
50013;DHT22;35901;48.694;9.476;2023-04-06T12:28:59;13.70;50.40
50013;DHT22;35901;48.694;9.476;2023-04-06T12:31:32;13.80;51.80
50013;DHT22;35901;48.694;9.476;2023-04-06T12:33:58;14.00;50.10
50013;DHT22;35901;48.694;9.476;2023-04-06T12:36:23;14.40;49.00
50013;DHT22;35901;48.694;9.476;2023-04-06T12:38:50;14.60;49.40
50013;DHT22;35901;48.694;9.476;2023-04-06T12:41:17;14.60;49.10
50013;DHT22;35901;48.694;9.476;2023-04-06T12:43:44;14.60;48.80
50013;DHT22;35901;48.694;9.476;2023-04-06T12:46:11;14.50;51.60
50013;DHT22;35901;48.694;9.476;2023-04-06T12:48:37;14.40;49.50
50013;DHT22;35901;48.694;9.476;2023-04-06T12:51:05;14.50;48.40
50013;DHT22;35901;48.694;9.476;2023-04-06T12:53:31;14.30;48.70
50013;DHT22;35901;48.694;9.476;2023-04-06T12:55:58;14.20;49.10
50013;DHT22;35901;48.694;9.476;2023-04-06T12:58:24;14.20;49.20
50013;DHT22;35901;48.694;9.476;2023-04-06T13:00:52;14.50;49.70
50013;DHT22;35901;48.694;9.476;2023-04-06T13:03:19;14.60;50.30
50013;DHT22;35901;48.694;9.476;2023-04-06T13:05:52;14.90;53.00
50013;DHT22;35901;48.694;9.476;2023-04-06T13:08:19;15.10;51.80
50013;DHT22;35901;48.694;9.476;2023-04-06T13:10:49;15.30;51.40
50013;DHT22;35901;48.694;9.476;2023-04-06T13:13:16;15.20;51.90
50013;DHT22;35901;48.694;9.476;2023-04-06T13:15:43;15.10;51.50
50013;DHT22;35901;48.694;9.476;2023-04-06T13:18:09;15.00;51.00
50013;DHT22;35901;48.694;9.476;2023-04-06T13:20:35;15.00;50.30
50013;DHT22;35901;48.694;9.476;2023-04-06T13:23:01;15.00;49.10
50013;DHT22;35901;48.694;9.476;2023-04-06T13:25:27;15.00;50.20
50013;DHT22;35901;48.694;9.476;2023-04-06T13:27:53;14.80;49.80
50013;DHT22;35901;48.694;9.476;2023-04-06T13:30:20;14.80;48.80
50013;DHT22;35901;48.694;9.476;2023-04-06T13:32:46;15.00;47.80
50013;DHT22;35901;48.694;9.476;2023-04-06T13:35:11;15.50;46.10
50013;DHT22;35901;48.694;9.476;2023-04-06T13:37:37;15.50;45.80
50013;DHT22;35901;48.694;9.476;2023-04-06T13:40:03;14.80;45.30
50013;DHT22;35901;48.694;9.476;2023-04-06T13:42:31;14.50;48.70
50013;DHT22;35901;48.694;9.476;2023-04-06T13:44:57;14.60;49.60
50013;DHT22;35901;48.694;9.476;2023-04-06T13:47:23;14.40;47.40
50013;DHT22;35901;48.694;9.476;2023-04-06T13:49:52;14.30;48.50
50013;DHT22;35901;48.694;9.476;2023-04-06T13:52:18;14.40;46.20
50013;DHT22;35901;48.694;9.476;2023-04-06T13:54:45;14.40;46.10
50013;DHT22;35901;48.694;9.476;2023-04-06T13:57:11;14.30;46.50
50013;DHT22;35901;48.694;9.476;2023-04-06T13:59:38;14.50;45.40
50013;DHT22;35901;48.694;9.476;2023-04-06T14:02:06;14.30;45.40
50013;DHT22;35901;48.694;9.476;2023-04-06T14:04:32;14.10;45.10
50013;DHT22;35901;48.694;9.476;2023-04-06T14:06:59;14.00;45.20
50013;DHT22;35901;48.694;9.476;2023-04-06T14:09:25;13.90;44.90
50013;DHT22;35901;48.694;9.476;2023-04-06T14:11:51;13.80;44.50
50013;DHT22;35901;48.694;9.476;2023-04-06T14:14:17;13.90;45.20
50013;DHT22;35901;48.694;9.476;2023-04-06T14:16:43;14.30;46.20
50013;DHT22;35901;48.694;9.476;2023-04-06T14:19:14;14.40;45.00
50013;DHT22;35901;48.694;9.476;2023-04-06T14:21:44;14.40;45.00
50013;DHT22;35901;48.694;9.476;2023-04-06T14:24:11;14.40;45.30
50013;DHT22;35901;48.694;9.476;2023-04-06T14:26:38;14.40;45.10
50013;DHT22;35901;48.694;9.476;2023-04-06T14:29:04;14.30;45.20
50013;DHT22;35901;48.694;9.476;2023-04-06T14:31:31;14.10;47.90
50013;DHT22;35901;48.694;9.476;2023-04-06T14:33:57;14.20;46.40
50013;DHT22;35901;48.694;9.476;2023-04-06T14:36:23;14.10;46.50
50013;DHT22;35901;48.694;9.476;2023-04-06T14:38:52;14.10;45.10
50013;DHT22;35901;48.694;9.476;2023-04-06T14:41:19;14.00;45.40
50013;DHT22;35901;48.694;9.476;2023-04-06T14:43:46;13.90;46.90
50013;DHT22;35901;48.694;9.476;2023-04-06T14:46:12;13.70;47.20
50013;DHT22;35901;48.694;9.476;2023-04-06T14:48:38;13.80;47.70
50013;DHT22;35901;48.694;9.476;2023-04-06T14:51:04;14.00;47.30
50013;DHT22;35901;48.694;9.476;2023-04-06T14:53:30;14.10;45.80
50013;DHT22;35901;48.694;9.476;2023-04-06T14:55:56;14.10;44.50
50013;DHT22;35901;48.694;9.476;2023-04-06T14:58:22;14.20;44.10
50013;DHT22;35901;48.694;9.476;2023-04-06T15:00:49;14.40;43.80
50013;DHT22;35901;48.694;9.476;2023-04-06T15:03:14;14.50;44.50
50013;DHT22;35901;48.694;9.476;2023-04-06T15:05:41;14.50;43.70
50013;DHT22;35901;48.694;9.476;2023-04-06T15:08:07;14.50;43.40
50013;DHT22;35901;48.694;9.476;2023-04-06T15:10:35;14.50;42.80
50013;DHT22;35901;48.694;9.476;2023-04-06T15:13:01;14.20;42.30
50013;DHT22;35901;48.694;9.476;2023-04-06T15:15:27;14.00;42.50
50013;DHT22;35901;48.694;9.476;2023-04-06T15:17:53;13.90;43.40
50013;DHT22;35901;48.694;9.476;2023-04-06T15:20:18;13.80;44.50
50013;DHT22;35901;48.694;9.476;2023-04-06T15:22:44;13.70;45.60
50013;DHT22;35901;48.694;9.476;2023-04-06T15:25:10;13.90;45.80
50013;DHT22;35901;48.694;9.476;2023-04-06T15:27:36;14.00;45.20
50013;DHT22;35901;48.694;9.476;2023-04-06T15:30:02;14.10;45.50
50013;DHT22;35901;48.694;9.476;2023-04-06T15:32:28;14.10;47.30
50013;DHT22;35901;48.694;9.476;2023-04-06T15:34:56;14.10;46.50
50013;DHT22;35901;48.694;9.476;2023-04-06T15:37:21;14.00;45.40
50013;DHT22;35901;48.694;9.476;2023-04-06T15:39:47;14.00;46.40
50013;DHT22;35901;48.694;9.476;2023-04-06T15:42:13;13.90;46.10
50013;DHT22;35901;48.694;9.476;2023-04-06T15:44:38;13.80;45.10
50013;DHT22;35901;48.694;9.476;2023-04-06T15:47:04;13.70;43.90
50013;DHT22;35901;48.694;9.476;2023-04-06T15:49:29;13.60;45.00
50013;DHT22;35901;48.694;9.476;2023-04-06T15:51:55;13.40;43.40